Capitol Logistics 255


KMIA
Miami International Airport
Miami, Florida, US
TNCM
Princess Juliana International Airport
St. Maarten, , SX

Route Details

Aircraft Information
Primary: Boeing 767-300BDSF
Backup: Not Available
Route Data
Distance: 1064nm
Sched. Duration: 2h 20m
Avg. Duration: 2h 44m (+24m)
Times Flown: 10
Recm'd Route: SKIPS2 SKIPS BR53V ZQA A555 GTK ELMUC L451 SLUGO A638 PJM
Planned Altitude: 35,000ft
Origin Wx: KMIA 271053Z 31011G18KT 10SM SCT015 BKN021 BKN150 OVC230 19/13 A3000 RMK AO2 SLP159 T01940133 $
Dest. Wx: TNCM 271100Z 05008KT 020V090 9999 FEW020 25/19 Q1017 NOSIG
Notes:

Financial History
Total Freight: 906,698lbs
Average Load: 90,670lbs/flt
Fuel Used: 274,424lbs
Avg. Fuel Used: 27,442lbs/flt
Fuel Expense: $337,542
Avg. Fuel Expense: $33,754
Avg. Fuel Cost: $1.23/lbs
Total Gross Income: $1,163,506
Pilot Pay: $1,740
Total Expenses: $126,179
Total Revenue: $694,747
Average Revenue: $116,350.60